createdAt,value
2018-11-11T00:00:32.263Z,5.60
2018-11-11T00:03:00.488Z,6.63
2018-11-11T00:05:28.706Z,2.73
2018-11-11T00:07:56.936Z,6.03
2018-11-11T00:10:25.156Z,3.60
2018-11-11T00:12:53.374Z,4.87
2018-11-11T00:15:21.607Z,3.77
2018-11-11T00:17:49.818Z,3.60
2018-11-11T00:20:18.149Z,2.63
2018-11-11T00:22:46.427Z,4.60
2018-11-11T00:25:14.918Z,5.10
2018-11-11T00:27:43.141Z,3.20
2018-11-11T00:30:18.451Z,3.43
2018-11-11T00:32:47.515Z,3.63
2018-11-11T00:35:15.783Z,3.43
2018-11-11T00:37:44.059Z,3.30
2018-11-11T00:40:13.650Z,3.50
2018-11-11T00:42:42.130Z,4.97
2018-11-11T00:45:11.031Z,2.53
2018-11-11T00:47:39.306Z,2.67
2018-11-11T00:50:08.719Z,2.07
2018-11-11T00:52:37.043Z,6.63
2018-11-11T00:55:07.314Z,2.80
2018-11-11T00:57:35.540Z,2.83
2018-11-11T01:00:04.790Z,3.20
2018-11-11T01:02:34.411Z,2.30
2018-11-11T01:05:03.016Z,2.70
2018-11-11T01:07:31.679Z,2.87
2018-11-11T01:09:59.959Z,3.13
2018-11-11T01:12:28.182Z,7.00
2018-11-11T01:14:56.620Z,3.23
2018-11-11T01:17:25.114Z,5.13
2018-11-11T01:19:53.516Z,2.67
2018-11-11T01:22:21.745Z,4.07
2018-11-11T01:24:49.935Z,2.63
2018-11-11T01:27:18.207Z,3.00
2018-11-11T01:29:46.396Z,2.57
2018-11-11T01:32:14.621Z,5.23
2018-11-11T01:34:42.853Z,3.90
2018-11-11T01:37:11.066Z,3.60
2018-11-11T01:39:39.366Z,7.40
2018-11-11T01:42:07.604Z,2.10
2018-11-11T01:44:35.843Z,2.20
2018-11-11T01:47:04.147Z,8.20
2018-11-11T01:49:32.428Z,2.53
2018-11-11T01:52:00.653Z,5.43
2018-11-11T01:54:28.879Z,2.77
2018-11-11T01:56:57.102Z,2.90
2018-11-11T01:59:25.326Z,3.50
2018-11-11T02:01:53.538Z,1.90
2018-11-11T02:04:21.746Z,2.40
2018-11-11T02:06:49.978Z,1.97
2018-11-11T02:09:18.195Z,1.80
2018-11-11T02:11:46.426Z,2.37
2018-11-11T02:14:14.648Z,2.00
2018-11-11T02:16:42.875Z,6.23
2018-11-11T02:19:11.113Z,3.07
2018-11-11T02:21:39.380Z,1.90
2018-11-11T02:24:07.599Z,3.20
2018-11-11T02:26:35.810Z,4.00
2018-11-11T02:29:04.095Z,2.83
2018-11-11T02:31:32.305Z,1.90
2018-11-11T02:34:00.535Z,2.37
2018-11-11T02:36:28.739Z,4.03
2018-11-11T02:38:56.945Z,3.50
2018-11-11T02:41:25.141Z,1.90
2018-11-11T02:43:53.353Z,2.30
2018-11-11T02:46:21.560Z,2.63
2018-11-11T02:48:49.766Z,6.27
2018-11-11T02:51:17.979Z,2.60
2018-11-11T02:53:46.206Z,4.63
2018-11-11T02:56:14.407Z,3.37
2018-11-11T02:58:42.621Z,2.60
2018-11-11T03:01:10.818Z,1.87
2018-11-11T03:03:39.430Z,2.03
2018-11-11T03:06:07.639Z,3.00
2018-11-11T03:08:35.863Z,2.27
2018-11-11T03:11:04.082Z,1.93
2018-11-11T03:13:32.286Z,3.30
2018-11-11T03:16:00.484Z,2.80
2018-11-11T03:18:28.705Z,1.90
2018-11-11T03:20:56.928Z,2.10
2018-11-11T03:23:25.142Z,5.23
2018-11-11T03:25:53.338Z,2.60
2018-11-11T03:28:21.561Z,2.30
2018-11-11T03:30:49.766Z,1.80
2018-11-11T03:33:17.984Z,2.17
2018-11-11T03:35:46.186Z,2.37
2018-11-11T03:38:14.398Z,2.30
2018-11-11T03:40:42.590Z,3.57
2018-11-11T03:43:10.803Z,2.50
2018-11-11T03:45:39.024Z,2.30
2018-11-11T03:48:07.237Z,4.10
2018-11-11T03:50:35.437Z,2.00
2018-11-11T03:53:03.649Z,2.73
2018-11-11T03:55:31.870Z,2.30
2018-11-11T03:58:00.094Z,2.07
2018-11-11T04:00:28.297Z,4.60
2018-11-11T04:02:56.509Z,2.50
2018-11-11T04:05:24.700Z,1.50
2018-11-11T04:07:53.012Z,1.80
2018-11-11T04:10:21.259Z,2.63
2018-11-11T04:12:49.738Z,2.13
2018-11-11T04:15:19.153Z,2.30
2018-11-11T04:17:47.871Z,3.33
2018-11-11T04:20:17.342Z,2.60
2018-11-11T04:22:45.571Z,4.37
2018-11-11T04:25:14.403Z,2.80
2018-11-11T04:27:42.662Z,2.13
2018-11-11T04:30:11.886Z,2.03
2018-11-11T04:32:40.466Z,2.20
2018-11-11T04:35:08.738Z,2.00
2018-11-11T04:37:36.968Z,3.80
2018-11-11T04:40:06.805Z,2.10
2018-11-11T04:42:35.018Z,2.20
2018-11-11T04:45:03.205Z,2.40
2018-11-11T04:47:31.434Z,3.00
2018-11-11T04:49:59.630Z,6.83
2018-11-11T04:52:27.847Z,2.80
2018-11-11T04:54:56.047Z,2.70
2018-11-11T04:57:24.250Z,3.83
2018-11-11T04:59:52.441Z,3.83
2018-11-11T05:02:20.644Z,4.97
2018-11-11T05:04:48.955Z,3.20
2018-11-11T05:07:17.091Z,3.77
2018-11-11T05:09:45.306Z,2.50
2018-11-11T05:12:13.515Z,3.77
2018-11-11T05:14:41.710Z,2.10
2018-11-11T05:17:09.917Z,2.57
2018-11-11T05:19:38.119Z,3.13
2018-11-11T05:22:06.651Z,2.23
2018-11-11T05:24:34.854Z,3.20
2018-11-11T05:27:03.046Z,4.90
2018-11-11T05:29:31.264Z,6.47
2018-11-11T05:31:59.479Z,7.83
2018-11-11T05:34:27.708Z,15.23
2018-11-11T05:36:55.922Z,14.00
2018-11-11T05:39:24.155Z,14.20
2018-11-11T05:41:52.371Z,16.70
2018-11-11T05:44:20.594Z,15.93
2018-11-11T05:46:48.807Z,15.37
2018-11-11T05:49:17.042Z,12.40
2018-11-11T05:51:45.261Z,15.70
2018-11-11T05:54:13.509Z,15.13
2018-11-11T05:56:41.727Z,17.80
2018-11-11T05:59:09.959Z,15.30
2018-11-11T06:01:38.186Z,21.00
2018-11-11T06:04:06.407Z,19.70
2018-11-11T06:06:34.622Z,18.43
2018-11-11T06:09:02.890Z,22.17
2018-11-11T06:11:31.097Z,23.07
2018-11-11T06:13:59.323Z,20.27
2018-11-11T06:16:27.524Z,20.03
2018-11-11T06:18:55.732Z,18.53
2018-11-11T06:21:23.940Z,15.83
2018-11-11T06:23:52.164Z,15.90
2018-11-11T06:26:20.375Z,9.90
2018-11-11T06:28:48.672Z,6.83
2018-11-11T06:31:16.883Z,8.13
2018-11-11T06:33:45.109Z,6.43
2018-11-11T06:36:13.313Z,7.83
2018-11-11T06:38:41.567Z,6.20
2018-11-11T06:41:09.810Z,6.53
2018-11-11T06:43:37.984Z,6.00
2018-11-11T06:46:06.221Z,6.20
2018-11-11T06:48:34.437Z,3.67
2018-11-11T06:51:02.663Z,3.13
2018-11-11T06:53:30.874Z,3.13
2018-11-11T06:55:59.085Z,2.90
2018-11-11T06:58:27.296Z,3.43
2018-11-11T07:00:55.494Z,3.80
2018-11-11T07:03:35.125Z,2.63
2018-11-11T07:06:03.326Z,3.23
2018-11-11T07:08:31.555Z,2.40
2018-11-11T07:10:59.762Z,1.70
2018-11-11T07:13:27.983Z,2.17
2018-11-11T07:15:56.181Z,1.60
2018-11-11T07:18:24.395Z,1.57
2018-11-11T07:20:52.602Z,2.50
2018-11-11T07:23:20.806Z,1.87
2018-11-11T07:25:49.026Z,1.57
2018-11-11T07:28:17.254Z,2.20
2018-11-11T07:30:45.478Z,1.80
2018-11-11T07:33:13.689Z,1.90
2018-11-11T07:35:41.940Z,3.27
2018-11-11T07:38:10.141Z,3.30
2018-11-11T07:40:38.354Z,1.60
2018-11-11T07:43:06.574Z,1.93
2018-11-11T07:45:34.783Z,1.80
2018-11-11T07:48:03.126Z,4.53
2018-11-11T07:50:31.205Z,1.63
2018-11-11T07:52:59.425Z,1.57
2018-11-11T07:55:27.646Z,2.37
2018-11-11T07:57:55.862Z,1.97
2018-11-11T08:00:24.073Z,2.87
2018-11-11T08:02:52.286Z,1.97
2018-11-11T08:05:20.496Z,1.90
2018-11-11T08:07:48.718Z,2.10
2018-11-11T08:10:28.315Z,1.80
2018-11-11T08:12:56.506Z,2.33
2018-11-11T08:15:24.815Z,2.00
2018-11-11T08:17:53.005Z,2.00
2018-11-11T08:20:21.222Z,4.50
2018-11-11T08:22:49.429Z,1.63
2018-11-11T08:25:17.647Z,2.00
2018-11-11T08:27:46.022Z,1.53
2018-11-11T08:30:14.226Z,2.53
2018-11-11T08:32:42.433Z,7.60
2018-11-11T08:35:10.717Z,1.43
2018-11-11T08:37:39.722Z,1.50
2018-11-11T08:40:08.603Z,2.17
2018-11-11T08:42:36.793Z,1.97
2018-11-11T08:45:06.801Z,2.60
2018-11-11T08:47:35.028Z,3.40
2018-11-11T08:50:03.265Z,2.47
2018-11-11T08:52:31.474Z,4.97
2018-11-11T08:54:59.709Z,10.20
2018-11-11T08:57:27.986Z,5.10
2018-11-11T08:59:56.198Z,3.83
2018-11-11T09:02:24.419Z,2.07
2018-11-11T09:04:52.694Z,4.63
2018-11-11T09:07:20.931Z,4.13
2018-11-11T09:09:49.150Z,10.33
2018-11-11T09:12:17.356Z,2.33
2018-11-11T09:14:45.615Z,2.13
2018-11-11T09:17:13.811Z,2.33
2018-11-11T09:19:42.041Z,2.57
2018-11-11T09:22:10.257Z,2.20
2018-11-11T09:24:38.471Z,3.37
2018-11-11T09:27:06.678Z,2.80
2018-11-11T09:29:35.428Z,3.13
2018-11-11T09:32:03.601Z,2.93
2018-11-11T09:34:31.825Z,2.13
2018-11-11T09:37:00.030Z,8.10
2018-11-11T09:39:28.225Z,4.27
2018-11-11T09:41:56.444Z,2.47
2018-11-11T09:44:24.631Z,4.80
2018-11-11T09:46:52.873Z,4.67
2018-11-11T09:49:21.081Z,3.47
2018-11-11T09:51:49.294Z,6.30
2018-11-11T09:54:17.599Z,2.60
2018-11-11T09:56:49.727Z,5.37
2018-11-11T09:59:17.925Z,1.90
2018-11-11T10:01:46.177Z,3.70
2018-11-11T10:04:19.731Z,1.50
2018-11-11T10:06:53.504Z,6.17
2018-11-11T10:09:26.841Z,3.73
2018-11-11T10:12:04.610Z,2.00
2018-11-11T10:15:40.583Z,3.50
2018-11-11T10:20:18.763Z,2.73
2018-11-11T10:22:53.763Z,2.87
2018-11-11T10:25:30.432Z,4.20
2018-11-11T10:28:04.956Z,4.57
2018-11-11T10:30:40.255Z,2.63
2018-11-11T10:33:20.524Z,2.73
2018-11-11T10:36:00.687Z,2.50
2018-11-11T10:38:46.777Z,1.73
2018-11-11T10:41:19.510Z,4.03
2018-11-11T10:43:50.825Z,2.13
2018-11-11T10:47:25.226Z,2.60
2018-11-11T10:49:55.363Z,5.13
2018-11-11T10:52:23.554Z,1.70
2018-11-11T10:54:51.776Z,2.57
2018-11-11T10:57:19.977Z,2.70
2018-11-11T10:59:48.170Z,5.93
2018-11-11T11:02:16.390Z,12.97
2018-11-11T11:04:50.088Z,3.80
2018-11-11T11:07:18.309Z,2.93
2018-11-11T11:09:46.540Z,2.73
2018-11-11T11:12:14.741Z,2.90
2018-11-11T11:14:42.939Z,3.20
2018-11-11T11:17:11.246Z,3.50
2018-11-11T11:19:39.458Z,3.10
2018-11-11T11:22:08.290Z,4.40
2018-11-11T11:24:36.498Z,3.20
2018-11-11T11:27:05.595Z,3.83
2018-11-11T11:29:33.769Z,2.20
2018-11-11T11:32:02.057Z,2.53
2018-11-11T11:34:30.230Z,1.87
2018-11-11T11:36:58.457Z,1.53
2018-11-11T11:39:26.766Z,1.90
2018-11-11T11:41:54.983Z,5.00
2018-11-11T11:44:23.165Z,5.90
2018-11-11T11:46:51.406Z,2.60
2018-11-11T11:49:19.605Z,2.37
2018-11-11T11:51:47.836Z,2.50
2018-11-11T11:54:16.025Z,1.90
2018-11-11T11:56:44.218Z,2.27
2018-11-11T11:59:12.419Z,3.10
2018-11-11T12:01:40.599Z,1.57
2018-11-11T12:04:09.000Z,2.53
2018-11-11T12:06:37.189Z,1.70
2018-11-11T12:09:07.930Z,2.17
2018-11-11T12:11:36.122Z,2.77
2018-11-11T12:14:04.349Z,2.10
2018-11-11T12:16:32.615Z,2.33
2018-11-11T12:19:01.022Z,2.40
2018-11-11T12:21:29.242Z,2.10
2018-11-11T12:23:57.450Z,3.10
2018-11-11T12:26:25.647Z,2.17
2018-11-11T12:28:53.852Z,1.50
2018-11-11T12:31:22.033Z,1.50
2018-11-11T12:33:50.499Z,2.80
2018-11-11T12:36:18.703Z,2.23
2018-11-11T12:38:47.007Z,2.27
2018-11-11T12:41:15.287Z,3.10
2018-11-11T12:43:43.527Z,2.83
2018-11-11T12:46:11.754Z,2.20
2018-11-11T12:48:40.014Z,2.17
2018-11-11T12:51:08.250Z,2.03
2018-11-11T12:53:36.459Z,2.10
2018-11-11T12:56:05.127Z,3.53
2018-11-11T12:58:33.368Z,3.10
2018-11-11T13:01:01.554Z,1.63
2018-11-11T13:03:29.793Z,3.73
2018-11-11T13:05:58.527Z,2.00
2018-11-11T13:08:26.729Z,3.07
2018-11-11T13:10:54.962Z,2.13
2018-11-11T13:13:23.193Z,4.87
2018-11-11T13:15:51.399Z,2.57
2018-11-11T13:18:19.627Z,1.97
2018-11-11T13:20:47.863Z,2.20
2018-11-11T13:23:16.067Z,2.60
2018-11-11T13:25:44.270Z,2.00
2018-11-11T13:28:12.473Z,2.87
2018-11-11T13:30:40.733Z,2.40
2018-11-11T13:33:08.942Z,1.87
2018-11-11T13:35:37.134Z,2.20
2018-11-11T13:38:05.517Z,1.93
2018-11-11T13:40:33.650Z,2.67
2018-11-11T13:43:01.837Z,2.03
2018-11-11T13:45:30.042Z,2.10
2018-11-11T13:47:58.262Z,3.20
2018-11-11T13:50:26.440Z,1.90
2018-11-11T13:52:54.641Z,2.63
2018-11-11T13:55:22.937Z,2.77
2018-11-11T13:57:51.339Z,2.20
2018-11-11T14:00:22.506Z,3.30
2018-11-11T14:02:50.753Z,4.53
2018-11-11T14:05:18.973Z,3.07
2018-11-11T14:07:47.233Z,3.83
2018-11-11T14:10:15.846Z,2.13
2018-11-11T14:12:44.130Z,2.63
2018-11-11T14:15:15.331Z,1.93
2018-11-11T14:17:44.320Z,3.33
2018-11-11T14:20:13.735Z,1.60
2018-11-11T14:22:43.125Z,3.60
2018-11-11T14:25:14.512Z,1.83
2018-11-11T14:27:42.857Z,4.70
2018-11-11T14:30:13.701Z,2.27
2018-11-11T14:32:41.956Z,1.60
2018-11-11T14:35:10.970Z,1.63
2018-11-11T14:37:39.154Z,2.80
2018-11-11T14:40:16.444Z,2.93
2018-11-11T14:42:44.942Z,1.70
2018-11-11T14:45:14.214Z,2.07
2018-11-11T14:47:43.198Z,2.23
2018-11-11T14:50:12.695Z,1.47
2018-11-11T14:52:41.202Z,2.03
2018-11-11T14:55:11.968Z,1.43
2018-11-11T14:57:40.105Z,1.43
2018-11-11T15:00:13.274Z,1.90
2018-11-11T15:02:41.499Z,3.63
2018-11-11T15:05:12.099Z,1.93
2018-11-11T15:07:40.581Z,2.07
2018-11-11T15:10:10.093Z,2.07
2018-11-11T15:12:38.478Z,2.40
2018-11-11T15:15:10.010Z,2.97
2018-11-11T15:17:38.203Z,2.30
2018-11-11T15:20:07.733Z,4.40
2018-11-11T15:22:35.907Z,5.07
2018-11-11T15:25:04.496Z,3.10
2018-11-11T15:27:32.713Z,2.50
2018-11-11T15:30:00.913Z,3.60
2018-11-11T15:32:29.127Z,3.70
2018-11-11T15:34:57.422Z,2.90
2018-11-11T15:37:25.834Z,4.43
2018-11-11T15:39:54.045Z,2.90
2018-11-11T15:42:22.278Z,4.60
2018-11-11T15:44:50.438Z,2.97
2018-11-11T15:47:18.630Z,2.80
2018-11-11T15:49:46.846Z,2.90
2018-11-11T15:52:15.110Z,3.57
2018-11-11T15:54:43.242Z,4.50
2018-11-11T15:57:11.550Z,5.90
2018-11-11T15:59:39.744Z,5.83
2018-11-11T16:02:07.942Z,7.30
2018-11-11T16:04:36.158Z,4.10
2018-11-11T16:07:04.371Z,6.53
2018-11-11T16:09:32.591Z,4.73
2018-11-11T16:12:00.834Z,3.63
2018-11-11T16:14:29.061Z,6.30
2018-11-11T16:16:57.320Z,5.73
2018-11-11T16:19:25.535Z,5.50
2018-11-11T16:21:53.730Z,5.00
2018-11-11T16:24:21.934Z,4.67
2018-11-11T16:26:50.228Z,6.33
2018-11-11T16:29:18.502Z,4.83
2018-11-11T16:31:46.714Z,6.63
2018-11-11T16:34:15.133Z,4.70
2018-11-11T16:36:43.809Z,5.37
2018-11-11T16:39:12.742Z,6.93
2018-11-11T16:41:41.345Z,7.33
2018-11-11T16:44:09.567Z,8.23
2018-11-11T16:46:37.774Z,6.33
2018-11-11T16:49:06.321Z,8.70
2018-11-11T16:51:34.596Z,8.80
2018-11-11T16:54:02.797Z,12.00
2018-11-11T16:56:30.976Z,6.50
2018-11-11T16:58:59.158Z,8.10
2018-11-11T17:01:27.353Z,8.53
2018-11-11T17:03:55.525Z,7.87
2018-11-11T17:06:23.721Z,6.73
2018-11-11T17:08:51.913Z,5.50
2018-11-11T17:11:20.296Z,7.70
2018-11-11T17:13:48.490Z,9.50
2018-11-11T17:16:16.682Z,7.40
2018-11-11T17:18:44.853Z,7.70
2018-11-11T17:21:13.068Z,6.73
2018-11-11T17:23:41.213Z,6.73
2018-11-11T17:26:09.402Z,5.60
2018-11-11T17:29:17.442Z,6.30
2018-11-11T17:31:46.179Z,7.60
2018-11-11T17:34:14.612Z,6.10
2018-11-11T17:36:42.993Z,9.07
2018-11-11T17:39:12.173Z,9.27
2018-11-11T17:41:40.464Z,7.17
2018-11-11T17:44:08.586Z,8.87
2018-11-11T17:46:36.781Z,9.40
2018-11-11T17:49:05.118Z,8.47
2018-11-11T17:51:33.229Z,8.30
2018-11-11T17:54:01.410Z,9.17
2018-11-11T17:56:29.599Z,15.87
2018-11-11T17:58:57.769Z,8.80
2018-11-11T18:01:25.966Z,10.83
2018-11-11T18:03:54.168Z,10.80
2018-11-11T18:06:22.350Z,12.30
2018-11-11T18:08:50.587Z,12.63
2018-11-11T18:11:18.726Z,13.77
2018-11-11T18:13:46.910Z,14.43
2018-11-11T18:16:15.151Z,11.73
2018-11-11T18:18:43.325Z,9.30
2018-11-11T18:21:11.514Z,12.63
2018-11-11T18:23:39.697Z,13.40
2018-11-11T18:26:07.888Z,12.20
2018-11-11T18:28:36.090Z,10.67
2018-11-11T18:31:04.377Z,14.10
2018-11-11T18:33:32.622Z,11.53
2018-11-11T18:36:00.855Z,11.80
2018-11-11T18:38:29.026Z,7.33
2018-11-11T18:40:57.223Z,5.97
2018-11-11T18:43:25.404Z,8.70
2018-11-11T18:45:53.595Z,6.20
2018-11-11T18:48:21.761Z,8.23
2018-11-11T18:53:24.699Z,8.07
2018-11-11T18:55:52.890Z,7.23
2018-11-11T18:58:21.061Z,7.13
2018-11-11T19:00:49.282Z,7.70
2018-11-11T19:03:17.473Z,14.90
2018-11-11T19:05:45.703Z,7.83
2018-11-11T19:08:13.890Z,7.13
2018-11-11T19:10:42.120Z,9.13
2018-11-11T19:13:10.316Z,6.00
2018-11-11T19:15:38.466Z,10.00
2018-11-11T19:18:06.657Z,8.70
2018-11-11T19:20:34.848Z,9.40
2018-11-11T19:23:03.040Z,9.90
2018-11-11T19:25:31.797Z,7.70
2018-11-11T19:28:01.012Z,11.60
2018-11-11T19:30:29.985Z,12.03
2018-11-11T19:32:58.090Z,8.70
2018-11-11T19:35:26.278Z,9.67
2018-11-11T19:37:55.438Z,7.00
2018-11-11T19:40:25.861Z,9.10
2018-11-11T19:42:55.291Z,4.37
2018-11-11T19:45:24.779Z,7.80
2018-11-11T19:47:52.977Z,6.27
2018-11-11T19:50:22.377Z,7.57
2018-11-11T19:52:51.470Z,4.70
2018-11-11T19:55:20.266Z,5.67
2018-11-11T19:57:48.459Z,5.20
2018-11-11T20:00:20.166Z,5.43
2018-11-11T20:02:49.475Z,6.63
2018-11-11T20:05:18.246Z,7.37
2018-11-11T20:07:47.453Z,6.70
2018-11-11T20:10:16.750Z,5.30
2018-11-11T20:12:44.950Z,8.17
2018-11-11T20:15:15.433Z,7.67
2018-11-11T20:17:43.985Z,5.23
2018-11-11T20:20:16.813Z,5.30
2018-11-11T20:22:45.041Z,5.10
2018-11-11T20:25:14.190Z,4.27
2018-11-11T20:27:42.683Z,5.87
2018-11-11T20:30:15.213Z,7.50
2018-11-11T20:32:43.637Z,9.27
2018-11-11T20:35:13.364Z,6.17
2018-11-11T20:37:41.577Z,5.57
2018-11-11T20:40:11.889Z,5.23
2018-11-11T20:42:40.690Z,5.63
2018-11-11T20:45:09.922Z,5.43
2018-11-11T20:47:38.721Z,4.90
2018-11-11T20:50:09.229Z,5.37
2018-11-11T20:52:37.743Z,8.20
2018-11-11T20:55:06.996Z,8.53
2018-11-11T20:57:35.229Z,5.00
2018-11-11T21:00:03.862Z,5.70
2018-11-11T21:02:32.049Z,3.60
2018-11-11T21:05:00.235Z,4.77
2018-11-11T21:07:28.447Z,4.40
2018-11-11T21:09:56.613Z,7.20
2018-11-11T21:12:24.807Z,6.10
2018-11-11T21:14:52.993Z,5.23
2018-11-11T21:17:21.267Z,3.87
2018-11-11T21:19:49.378Z,6.83
2018-11-11T21:22:17.560Z,5.93
2018-11-11T21:24:45.763Z,5.37
2018-11-11T21:27:13.969Z,4.60
2018-11-11T21:29:42.141Z,5.17
2018-11-11T21:32:10.329Z,5.43
2018-11-11T21:34:38.522Z,4.40
2018-11-11T21:37:06.725Z,4.60
2018-11-11T21:39:34.917Z,4.17
2018-11-11T21:42:03.093Z,4.10
2018-11-11T21:44:31.284Z,4.40
2018-11-11T21:46:59.461Z,3.50
2018-11-11T21:49:27.657Z,6.27
2018-11-11T21:51:55.843Z,3.57
2018-11-11T21:54:24.038Z,4.00
2018-11-11T21:56:52.222Z,3.20
2018-11-11T21:59:20.410Z,4.63
2018-11-11T22:01:48.590Z,8.00
2018-11-11T22:04:16.771Z,5.00
2018-11-11T22:06:44.947Z,4.27
2018-11-11T22:09:13.205Z,3.93
2018-11-11T22:11:41.385Z,4.67
2018-11-11T22:14:09.564Z,6.47
2018-11-11T22:16:37.745Z,5.20
2018-11-11T22:19:05.933Z,4.33
2018-11-11T22:21:34.114Z,3.00
2018-11-11T22:24:02.307Z,4.60
2018-11-11T22:26:30.474Z,3.27
2018-11-11T22:28:58.665Z,5.20
2018-11-11T22:31:26.852Z,7.90
2018-11-11T22:33:55.051Z,3.67
2018-11-11T22:36:23.229Z,3.80
2018-11-11T22:38:51.419Z,3.70
2018-11-11T22:41:19.606Z,3.80
2018-11-11T22:43:47.793Z,5.13
2018-11-11T22:46:15.982Z,7.20
2018-11-11T22:48:44.176Z,4.47
2018-11-11T22:51:12.362Z,4.40
2018-11-11T22:53:40.562Z,4.90
2018-11-11T22:56:08.750Z,5.60
2018-11-11T22:58:36.961Z,5.00
2018-11-11T23:01:11.356Z,5.10
2018-11-11T23:03:39.565Z,4.27
2018-11-11T23:06:07.872Z,3.67
2018-11-11T23:08:36.054Z,4.33
2018-11-11T23:11:04.249Z,4.40
2018-11-11T23:13:32.425Z,4.27
2018-11-11T23:16:00.627Z,8.60
2018-11-11T23:18:28.777Z,4.67
2018-11-11T23:20:56.969Z,2.97
2018-11-11T23:23:25.153Z,5.73
2018-11-11T23:25:53.345Z,5.40
2018-11-11T23:28:21.596Z,5.93
2018-11-11T23:30:49.717Z,3.17
2018-11-11T23:33:17.914Z,2.80
2018-11-11T23:35:46.077Z,2.60
2018-11-11T23:38:14.260Z,4.43
2018-11-11T23:40:42.433Z,2.80
2018-11-11T23:43:10.635Z,4.30
2018-11-11T23:45:38.811Z,3.70
2018-11-11T23:48:07.001Z,3.30
2018-11-11T23:50:35.174Z,5.20
2018-11-11T23:53:03.353Z,3.40
2018-11-11T23:55:31.533Z,3.37
2018-11-11T23:57:59.721Z,3.13
